sensor_id;sensor_type;location;lat;lon;timestamp;pressure;altitude;pressure_sealevel;temperature;humidity
34370;BME280;20635;55.812;37.560;2022-11-21T00:00:48;99946.19;;;23.88;28.60
34370;BME280;20635;55.812;37.560;2022-11-21T00:03:14;99943.41;;;23.88;28.76
34370;BME280;20635;55.812;37.560;2022-11-21T00:05:43;99952.94;;;23.87;28.62
34370;BME280;20635;55.812;37.560;2022-11-21T00:08:10;99955.25;;;23.85;28.70
34370;BME280;20635;55.812;37.560;2022-11-21T00:10:37;99960.00;;;23.84;28.66
34370;BME280;20635;55.812;37.560;2022-11-21T00:13:04;99956.38;;;23.84;28.87
34370;BME280;20635;55.812;37.560;2022-11-21T00:15:31;99964.75;;;23.84;28.42
34370;BME280;20635;55.812;37.560;2022-11-21T00:17:58;99961.16;;;23.83;28.62
34370;BME280;20635;55.812;37.560;2022-11-21T00:20:26;99962.28;;;23.82;28.64
34370;BME280;20635;55.812;37.560;2022-11-21T00:22:52;99958.66;;;23.82;28.55
34370;BME280;20635;55.812;37.560;2022-11-21T00:25:17;99936.59;;;23.80;28.61
34370;BME280;20635;55.812;37.560;2022-11-21T00:27:43;99941.88;;;23.82;28.56
34370;BME280;20635;55.812;37.560;2022-11-21T00:30:09;99947.47;;;23.82;28.48
34370;BME280;20635;55.812;37.560;2022-11-21T00:32:36;99945.84;;;23.81;28.68
34370;BME280;20635;55.812;37.560;2022-11-21T00:35:02;99950.59;;;23.80;28.74
34370;BME280;20635;55.812;37.560;2022-11-21T00:37:27;99958.16;;;23.79;28.63
34370;BME280;20635;55.812;37.560;2022-11-21T00:39:53;99940.84;;;23.77;28.37
34370;BME280;20635;55.812;37.560;2022-11-21T00:42:19;99942.00;;;23.76;28.53
34370;BME280;20635;55.812;37.560;2022-11-21T00:44:45;99942.00;;;23.76;28.55
34370;BME280;20635;55.812;37.560;2022-11-21T00:47:11;99933.91;;;23.75;28.44
34370;BME280;20635;55.812;37.560;2022-11-21T00:49:37;99935.59;;;23.76;28.40
34370;BME280;20635;55.812;37.560;2022-11-21T00:52:03;99932.78;;;23.76;28.57
34370;BME280;20635;55.812;37.560;2022-11-21T00:54:29;99921.88;;;23.74;28.45
34370;BME280;20635;55.812;37.560;2022-11-21T00:56:54;99929.16;;;23.75;28.21
34370;BME280;20635;55.812;37.560;2022-11-21T00:59:20;99919.91;;;23.75;28.25
34370;BME280;20635;55.812;37.560;2022-11-21T01:01:46;99913.50;;;23.74;28.51
34370;BME280;20635;55.812;37.560;2022-11-21T01:04:12;99923.88;;;23.74;28.34
34370;BME280;20635;55.812;37.560;2022-11-21T01:06:38;99914.97;;;23.72;28.40
34370;BME280;20635;55.812;37.560;2022-11-21T01:09:04;99916.94;;;23.71;28.33
34370;BME280;20635;55.812;37.560;2022-11-21T01:11:31;99928.97;;;23.72;28.09
34370;BME280;20635;55.812;37.560;2022-11-21T01:13:57;99920.88;;;23.70;28.07
34370;BME280;20635;55.812;37.560;2022-11-21T01:16:26;99920.88;;;23.70;28.29
34370;BME280;20635;55.812;37.560;2022-11-21T01:18:53;99916.41;;;23.69;28.38
34370;BME280;20635;55.812;37.560;2022-11-21T01:21:20;99920.88;;;23.70;28.31
34370;BME280;20635;55.812;37.560;2022-11-21T01:23:46;99908.84;;;23.70;28.45
34370;BME280;20635;55.812;37.560;2022-11-21T01:26:18;99908.03;;;23.69;28.70
34370;BME280;20635;55.812;37.560;2022-11-21T01:28:45;99915.59;;;23.69;28.44
34370;BME280;20635;55.812;37.560;2022-11-21T01:31:20;99912.78;;;23.69;28.65
34370;BME280;20635;55.812;37.560;2022-11-21T01:33:47;99898.31;;;23.67;28.47
34370;BME280;20635;55.812;37.560;2022-11-21T01:36:15;99895.50;;;23.67;28.59
34370;BME280;20635;55.812;37.560;2022-11-21T01:38:43;99883.47;;;23.66;28.77
34370;BME280;20635;55.812;37.560;2022-11-21T01:41:10;99884.31;;;23.67;28.56
34370;BME280;20635;55.812;37.560;2022-11-21T01:43:37;99880.66;;;23.66;28.36
34370;BME280;20635;55.812;37.560;2022-11-21T01:46:18;99884.00;;;23.68;28.40
34370;BME280;20635;55.812;37.560;2022-11-21T01:48:59;99872.81;;;23.68;28.57
34370;BME280;20635;55.812;37.560;2022-11-21T01:54:09;99867.53;;;23.67;28.53
34370;BME280;20635;55.812;37.560;2022-11-21T01:57:21;99869.69;;;23.70;28.32
34370;BME280;20635;55.812;37.560;2022-11-21T01:59:32;99855.47;;;23.66;28.24
34370;BME280;20635;55.812;37.560;2022-11-21T02:02:01;99856.09;;;23.63;28.23
34370;BME280;20635;55.812;37.560;2022-11-21T02:04:30;99848.88;;;23.62;28.44
34370;BME280;20635;55.812;37.560;2022-11-21T02:06:58;99849.69;;;23.63;28.57
34370;BME280;20635;55.812;37.560;2022-11-21T02:09:26;99851.66;;;23.62;28.26
34370;BME280;20635;55.812;37.560;2022-11-21T02:12:04;99848.53;;;23.64;28.46
34370;BME280;20635;55.812;37.560;2022-11-21T02:14:32;99848.34;;;23.60;27.87
34370;BME280;20635;55.812;37.560;2022-11-21T02:17:01;99852.78;;;23.61;27.64
34370;BME280;20635;55.812;37.560;2022-11-21T02:22:13;99848.53;;;23.64;27.60
34370;BME280;20635;55.812;37.560;2022-11-21T02:24:46;99847.41;;;23.65;27.80
34370;BME280;20635;55.812;37.560;2022-11-21T02:27:14;99840.69;;;23.66;27.84
34370;BME280;20635;55.812;37.560;2022-11-21T02:29:42;99824.41;;;23.68;27.53
34370;BME280;20635;55.812;37.560;2022-11-21T02:32:08;99810.91;;;23.70;27.57
34370;BME280;20635;55.812;37.560;2022-11-21T02:34:33;99805.84;;;23.72;27.85
34370;BME280;20635;55.812;37.560;2022-11-21T02:37:01;99810.28;;;23.73;27.42
34370;BME280;20635;55.812;37.560;2022-11-21T02:39:33;99816.09;;;23.76;27.64
34370;BME280;20635;55.812;37.560;2022-11-21T02:42:16;99823.53;;;23.81;28.19
34370;BME280;20635;55.812;37.560;2022-11-21T02:45:18;99815.63;;;23.83;28.11
34370;BME280;20635;55.812;37.560;2022-11-21T02:47:45;99817.59;;;23.83;27.96
34370;BME280;20635;55.812;37.560;2022-11-21T02:50:15;99824.00;;;23.83;27.68
34370;BME280;20635;55.812;37.560;2022-11-21T02:52:43;99826.50;;;23.85;27.81
34370;BME280;20635;55.812;37.560;2022-11-21T02:55:10;99822.56;;;23.86;27.63
34370;BME280;20635;55.812;37.560;2022-11-21T02:57:40;99823.06;;;23.88;27.64
34370;BME280;20635;55.812;37.560;2022-11-21T03:00:07;99824.41;;;23.90;27.67
34370;BME280;20635;55.812;37.560;2022-11-21T03:02:34;99812.06;;;23.91;27.50
34370;BME280;20635;55.812;37.560;2022-11-21T03:05:00;99811.44;;;23.94;27.76
34370;BME280;20635;55.812;37.560;2022-11-21T03:07:27;99800.72;;;23.96;27.62
34370;BME280;20635;55.812;37.560;2022-11-21T03:09:52;99796.78;;;23.97;27.66
34370;BME280;20635;55.812;37.560;2022-11-21T03:12:18;99800.09;;;23.99;27.72
34370;BME280;20635;55.812;37.560;2022-11-21T03:14:44;99813.75;;;24.01;27.79
34370;BME280;20635;55.812;37.560;2022-11-21T03:17:10;99815.41;;;24.02;27.88
34370;BME280;20635;55.812;37.560;2022-11-21T03:19:36;99830.75;;;24.04;27.72
34370;BME280;20635;55.812;37.560;2022-11-21T03:22:03;99824.81;;;24.06;27.87
34370;BME280;20635;55.812;37.560;2022-11-21T03:24:29;99822.53;;;24.08;28.07
34370;BME280;20635;55.812;37.560;2022-11-21T03:26:55;99826.97;;;24.09;28.17
34370;BME280;20635;55.812;37.560;2022-11-21T03:29:21;99827.16;;;24.13;28.10
34370;BME280;20635;55.812;37.560;2022-11-21T03:31:47;99831.63;;;24.14;27.85
34370;BME280;20635;55.812;37.560;2022-11-21T03:34:13;99835.72;;;24.16;28.05
34370;BME280;20635;55.812;37.560;2022-11-21T03:36:39;99827.03;;;24.18;28.23
34370;BME280;20635;55.812;37.560;2022-11-21T03:39:05;99837.91;;;24.19;28.21
34370;BME280;20635;55.812;37.560;2022-11-21T03:41:31;99836.13;;;24.23;28.23
34370;BME280;20635;55.812;37.560;2022-11-21T03:43:58;99844.72;;;24.27;28.75
34370;BME280;20635;55.812;37.560;2022-11-21T03:46:25;99841.56;;;24.28;28.46
34370;BME280;20635;55.812;37.560;2022-11-21T03:48:51;99839.28;;;24.30;28.62
34370;BME280;20635;55.812;37.560;2022-11-21T03:51:18;99842.59;;;24.33;28.47
34370;BME280;20635;55.812;37.560;2022-11-21T03:53:45;99846.72;;;24.35;28.82
34370;BME280;20635;55.812;37.560;2022-11-21T03:56:12;99844.44;;;24.37;28.86
34370;BME280;20635;55.812;37.560;2022-11-21T03:58:38;99838.53;;;24.39;28.79
34370;BME280;20635;55.812;37.560;2022-11-21T04:01:04;99837.88;;;24.42;28.92
34370;BME280;20635;55.812;37.560;2022-11-21T04:03:30;99847.63;;;24.44;28.87
34370;BME280;20635;55.812;37.560;2022-11-21T04:05:56;99842.03;;;24.44;28.88
34370;BME280;20635;55.812;37.560;2022-11-21T04:08:22;99837.25;;;24.45;28.88
34370;BME280;20635;55.812;37.560;2022-11-21T04:10:52;99832.66;;;24.49;28.83
34370;BME280;20635;55.812;37.560;2022-11-21T04:13:18;99823.72;;;24.47;28.76
34370;BME280;20635;55.812;37.560;2022-11-21T04:15:44;99829.03;;;24.48;28.59
34370;BME280;20635;55.812;37.560;2022-11-21T04:18:11;99832.66;;;24.49;28.53
34370;BME280;20635;55.812;37.560;2022-11-21T04:20:37;99823.09;;;24.50;28.10
34370;BME280;20635;55.812;37.560;2022-11-21T04:23:05;99825.56;;;24.51;28.29
34370;BME280;20635;55.812;37.560;2022-11-21T04:25:31;99816.34;;;24.51;28.37
34370;BME280;20635;55.812;37.560;2022-11-21T04:27:58;99816.00;;;24.52;28.51
34370;BME280;20635;55.812;37.560;2022-11-21T04:30:25;99814.06;;;24.53;28.50
34370;BME280;20635;55.812;37.560;2022-11-21T04:32:52;99820.13;;;24.55;28.36
34370;BME280;20635;55.812;37.560;2022-11-21T04:35:19;99816.53;;;24.54;28.49
34370;BME280;20635;55.812;37.560;2022-11-21T04:37:45;99806.47;;;24.53;28.47
34370;BME280;20635;55.812;37.560;2022-11-21T04:40:12;99802.84;;;24.53;27.91
34370;BME280;20635;55.812;37.560;2022-11-21T04:42:42;99802.00;;;24.52;27.75
34370;BME280;20635;55.812;37.560;2022-11-21T04:45:08;99802.31;;;24.51;27.87
34370;BME280;20635;55.812;37.560;2022-11-21T04:47:38;99803.97;;;24.52;28.12
34370;BME280;20635;55.812;37.560;2022-11-21T04:50:05;99798.69;;;24.50;27.62
34370;BME280;20635;55.812;37.560;2022-11-21T04:52:32;99804.31;;;24.50;27.87
34370;BME280;20635;55.812;37.560;2022-11-21T04:54:58;99797.06;;;24.49;27.67
34370;BME280;20635;55.812;37.560;2022-11-21T04:57:26;99801.00;;;24.48;27.36
34370;BME280;20635;55.812;37.560;2022-11-21T04:59:52;99801.00;;;24.48;27.53
34370;BME280;20635;55.812;37.560;2022-11-21T05:02:19;99799.34;;;24.47;27.51
34370;BME280;20635;55.812;37.560;2022-11-21T05:04:45;99803.31;;;24.46;27.08
34370;BME280;20635;55.812;37.560;2022-11-21T05:07:11;99805.28;;;24.46;27.44
34370;BME280;20635;55.812;37.560;2022-11-21T05:09:37;99795.22;;;24.45;27.25
34370;BME280;20635;55.812;37.560;2022-11-21T05:12:03;99802.81;;;24.44;27.31
34370;BME280;20635;55.812;37.560;2022-11-21T05:14:47;99798.34;;;24.43;26.99
34370;BME280;20635;55.812;37.560;2022-11-21T05:19:39;99793.88;;;24.42;27.18
34370;BME280;20635;55.812;37.560;2022-11-21T05:22:05;99793.41;;;24.40;26.84
34370;BME280;20635;55.812;37.560;2022-11-21T05:24:31;99786.97;;;24.40;26.78
34370;BME280;20635;55.812;37.560;2022-11-21T05:27:00;99792.56;;;24.40;26.93
34370;BME280;20635;55.812;37.560;2022-11-21T05:29:27;99788.44;;;24.37;26.68
34370;BME280;20635;55.812;37.560;2022-11-21T05:31:53;99785.94;;;24.36;26.38
34370;BME280;20635;55.812;37.560;2022-11-21T05:34:19;99785.94;;;24.36;26.68
34370;BME280;20635;55.812;37.560;2022-11-21T05:36:45;99784.28;;;24.35;26.28
34370;BME280;20635;55.812;37.560;2022-11-21T05:39:11;99777.84;;;24.34;26.21
34370;BME280;20635;55.812;37.560;2022-11-21T05:41:37;99770.94;;;24.32;26.21
34370;BME280;20635;55.812;37.560;2022-11-21T05:44:03;99766.47;;;24.30;26.38
34370;BME280;20635;55.812;37.560;2022-11-21T05:46:29;99768.47;;;24.30;26.26
34370;BME280;20635;55.812;37.560;2022-11-21T05:48:54;99761.19;;;24.29;26.20
34370;BME280;20635;55.812;37.560;2022-11-21T05:51:21;99767.13;;;24.27;25.94
34370;BME280;20635;55.812;37.560;2022-11-21T05:53:47;99775.84;;;24.26;25.66
34370;BME280;20635;55.812;37.560;2022-11-21T05:56:15;99769.44;;;24.25;25.57
34370;BME280;20635;55.812;37.560;2022-11-21T05:58:41;99776.81;;;24.21;25.58
34370;BME280;20635;55.812;37.560;2022-11-21T06:01:09;99785.72;;;24.23;25.53
34370;BME280;20635;55.812;37.560;2022-11-21T06:03:39;99787.16;;;24.21;25.38
34370;BME280;20635;55.812;37.560;2022-11-21T06:06:15;99788.84;;;24.22;25.60
34370;BME280;20635;55.812;37.560;2022-11-21T06:08:42;99781.41;;;24.17;25.31
34370;BME280;20635;55.812;37.560;2022-11-21T06:11:12;99785.34;;;24.16;25.35
34370;BME280;20635;55.812;37.560;2022-11-21T06:13:38;99784.84;;;24.14;25.09
34370;BME280;20635;55.812;37.560;2022-11-21T06:16:07;99784.34;;;24.12;25.12
34370;BME280;20635;55.812;37.560;2022-11-21T06:18:38;99786.31;;;24.12;24.94
34370;BME280;20635;55.812;37.560;2022-11-21T06:23:41;99768.00;;;24.05;24.69
34370;BME280;20635;55.812;37.560;2022-11-21T06:26:11;99783.66;;;24.07;24.84
34370;BME280;20635;55.812;37.560;2022-11-21T06:28:39;99770.31;;;24.03;24.84
34370;BME280;20635;55.812;37.560;2022-11-21T06:31:09;99787.09;;;24.03;24.90
34370;BME280;20635;55.812;37.560;2022-11-21T06:33:36;99781.00;;;24.01;24.66
34370;BME280;20635;55.812;37.560;2022-11-21T06:36:10;99781.81;;;24.02;24.81
34370;BME280;20635;55.812;37.560;2022-11-21T06:38:37;99780.81;;;23.98;24.47
34370;BME280;20635;55.812;37.560;2022-11-21T06:41:09;99775.19;;;23.98;24.54
34370;BME280;20635;55.812;37.560;2022-11-21T06:43:35;99784.25;;;23.95;24.62
34370;BME280;20635;55.812;37.560;2022-11-21T06:46:01;99782.91;;;23.92;24.52
34370;BME280;20635;55.812;37.560;2022-11-21T06:48:32;99778.13;;;23.93;24.50
34370;BME280;20635;55.812;37.560;2022-11-21T06:51:03;99781.28;;;23.91;24.56
34370;BME280;20635;55.812;37.560;2022-11-21T06:53:29;99793.09;;;23.88;24.71
34370;BME280;20635;55.812;37.560;2022-11-21T06:55:58;99797.03;;;23.87;24.60
34370;BME280;20635;55.812;37.560;2022-11-21T06:58:24;99789.81;;;23.86;24.53
34370;BME280;20635;55.812;37.560;2022-11-21T07:00:50;99787.34;;;23.85;24.55
34370;BME280;20635;55.812;37.560;2022-11-21T07:03:16;99787.63;;;23.83;24.73
34370;BME280;20635;55.812;37.560;2022-11-21T07:05:42;99783.19;;;23.82;24.50
34370;BME280;20635;55.812;37.560;2022-11-21T07:08:08;99785.16;;;23.82;24.44
34370;BME280;20635;55.812;37.560;2022-11-21T07:10:34;99797.50;;;23.81;24.63
34370;BME280;20635;55.812;37.560;2022-11-21T07:13:01;99802.28;;;23.80;24.65
34370;BME280;20635;55.812;37.560;2022-11-21T07:15:46;99794.53;;;23.77;24.26
34370;BME280;20635;55.812;37.560;2022-11-21T07:18:13;99788.41;;;23.75;24.55
34370;BME280;20635;55.812;37.560;2022-11-21T07:20:39;99783.66;;;23.75;24.23
34370;BME280;20635;55.812;37.560;2022-11-21T07:23:06;99780.34;;;23.73;24.32
34370;BME280;20635;55.812;37.560;2022-11-21T07:25:33;99778.69;;;23.72;24.40
34370;BME280;20635;55.812;37.560;2022-11-21T07:28:02;99775.06;;;23.72;23.99
34370;BME280;20635;55.812;37.560;2022-11-21T07:30:28;99758.59;;;23.70;24.40
34370;BME280;20635;55.812;37.560;2022-11-21T07:32:58;99768.13;;;23.69;24.16
34370;BME280;20635;55.812;37.560;2022-11-21T07:35:25;99771.25;;;23.68;24.15
34370;BME280;20635;55.812;37.560;2022-11-21T07:37:51;99790.31;;;23.66;23.81
34370;BME280;20635;55.812;37.560;2022-11-21T07:40:17;99783.06;;;23.65;24.19
34370;BME280;20635;55.812;37.560;2022-11-21T07:42:44;99775.81;;;23.64;24.19
34370;BME280;20635;55.812;37.560;2022-11-21T07:45:10;99776.94;;;23.63;24.10
34370;BME280;20635;55.812;37.560;2022-11-21T07:47:36;99772.47;;;23.62;24.10
34370;BME280;20635;55.812;37.560;2022-11-21T07:50:03;99775.59;;;23.60;23.99
34370;BME280;20635;55.812;37.560;2022-11-21T07:52:29;99775.94;;;23.59;24.16
34370;BME280;20635;55.812;37.560;2022-11-21T07:54:56;99778.72;;;23.59;24.09
34370;BME280;20635;55.812;37.560;2022-11-21T07:57:23;99774.28;;;23.58;23.95
34370;BME280;20635;55.812;37.560;2022-11-21T07:59:48;99773.44;;;23.57;23.98
34370;BME280;20635;55.812;37.560;2022-11-21T08:02:19;99777.09;;;23.58;23.64
34370;BME280;20635;55.812;37.560;2022-11-21T08:04:46;99777.72;;;23.54;23.91
34370;BME280;20635;55.812;37.560;2022-11-21T08:07:13;99784.47;;;23.53;24.05
34370;BME280;20635;55.812;37.560;2022-11-21T08:09:39;99771.59;;;23.52;23.77
34370;BME280;20635;55.812;37.560;2022-11-21T08:12:05;99775.53;;;23.51;23.98
34370;BME280;20635;55.812;37.560;2022-11-21T08:14:34;99782.28;;;23.50;23.90
34370;BME280;20635;55.812;37.560;2022-11-21T08:17:00;99783.44;;;23.49;23.95
34370;BME280;20635;55.812;37.560;2022-11-21T08:19:26;99777.03;;;23.49;23.88
34370;BME280;20635;55.812;37.560;2022-11-21T08:21:53;99778.16;;;23.48;23.71
34370;BME280;20635;55.812;37.560;2022-11-21T08:24:19;99779.28;;;23.47;23.93
34370;BME280;20635;55.812;37.560;2022-11-21T08:26:45;99762.00;;;23.45;23.44
34370;BME280;20635;55.812;37.560;2022-11-21T08:29:12;99773.50;;;23.43;23.87
34370;BME280;20635;55.812;37.560;2022-11-21T08:31:40;99768.56;;;23.40;23.60
34370;BME280;20635;55.812;37.560;2022-11-21T08:34:06;99780.06;;;23.39;23.85
34370;BME280;20635;55.812;37.560;2022-11-21T08:36:33;99777.91;;;23.36;23.35
34370;BME280;20635;55.812;37.560;2022-11-21T08:38:59;99770.97;;;23.33;23.72
34370;BME280;20635;55.812;37.560;2022-11-21T08:41:25;99781.31;;;23.33;23.60
34370;BME280;20635;55.812;37.560;2022-11-21T08:44:09;99786.09;;;23.32;23.73
34370;BME280;20635;55.812;37.560;2022-11-21T08:46:35;99790.03;;;23.31;23.93
34370;BME280;20635;55.812;37.560;2022-11-21T08:49:06;99785.28;;;23.32;24.01
34370;BME280;20635;55.812;37.560;2022-11-21T08:51:33;99786.72;;;23.29;23.99
34370;BME280;20635;55.812;37.560;2022-11-21T08:53:59;99781.94;;;23.29;23.91
34370;BME280;20635;55.812;37.560;2022-11-21T08:56:26;99780.31;;;23.28;23.97
34370;BME280;20635;55.812;37.560;2022-11-21T08:58:52;99775.84;;;23.27;23.54
34370;BME280;20635;55.812;37.560;2022-11-21T09:01:18;99777.84;;;23.27;23.99
34370;BME280;20635;55.812;37.560;2022-11-21T09:03:43;99771.72;;;23.25;24.00
34370;BME280;20635;55.812;37.560;2022-11-21T09:06:09;99774.50;;;23.25;24.07
34370;BME280;20635;55.812;37.560;2022-11-21T09:08:36;99771.72;;;23.25;23.67
34370;BME280;20635;55.812;37.560;2022-11-21T09:11:07;99775.34;;;23.25;23.97
34370;BME280;20635;55.812;37.560;2022-11-21T09:13:34;99765.28;;;23.24;23.67
34370;BME280;20635;55.812;37.560;2022-11-21T09:16:00;99764.81;;;23.22;23.50
34370;BME280;20635;55.812;37.560;2022-11-21T09:18:45;99758.69;;;23.20;23.56
34370;BME280;20635;55.812;37.560;2022-11-21T09:21:17;99755.06;;;23.20;23.58
34370;BME280;20635;55.812;37.560;2022-11-21T09:23:43;99752.28;;;23.20;23.60
34370;BME280;20635;55.812;37.560;2022-11-21T09:26:10;99749.47;;;23.20;23.78
34370;BME280;20635;55.812;37.560;2022-11-21T09:28:36;99746.19;;;23.18;23.80
34370;BME280;20635;55.812;37.560;2022-11-21T09:31:05;99748.16;;;23.17;23.88
34370;BME280;20635;55.812;37.560;2022-11-21T09:33:35;99736.16;;;23.17;23.64
34370;BME280;20635;55.812;37.560;2022-11-21T09:36:01;99735.63;;;23.15;23.76
34370;BME280;20635;55.812;37.560;2022-11-21T09:38:27;99750.41;;;23.15;23.87
34370;BME280;20635;55.812;37.560;2022-11-21T09:41:01;99740.06;;;23.16;23.77
34370;BME280;20635;55.812;37.560;2022-11-21T09:44:43;99736.16;;;23.17;23.93
34370;BME280;20635;55.812;37.560;2022-11-21T09:47:32;99734.19;;;23.17;23.90
34370;BME280;20635;55.812;37.560;2022-11-21T09:50:33;99740.88;;;23.16;23.98
34370;BME280;20635;55.812;37.560;2022-11-21T09:53:25;99735.63;;;23.15;23.52
34370;BME280;20635;55.812;37.560;2022-11-21T09:55:57;99735.41;;;23.11;23.73
34370;BME280;20635;55.812;37.560;2022-11-21T09:58:36;99735.41;;;23.11;23.50
34370;BME280;20635;55.812;37.560;2022-11-21T10:01:04;99736.91;;;23.09;23.52
34370;BME280;20635;55.812;37.560;2022-11-21T10:03:34;99732.47;;;23.08;23.80
34370;BME280;20635;55.812;37.560;2022-11-21T10:06:24;99731.81;;;23.11;23.76
34370;BME280;20635;55.812;37.560;2022-11-21T10:09:02;99728.50;;;23.09;23.75
34370;BME280;20635;55.812;37.560;2022-11-21T10:15:14;99720.94;;;23.09;23.78
34370;BME280;20635;55.812;37.560;2022-11-21T10:25:54;99717.00;;;23.10;23.75
34370;BME280;20635;55.812;37.560;2022-11-21T10:30:53;99716.81;;;23.07;23.66
34370;BME280;20635;55.812;37.560;2022-11-21T10:33:29;99715.16;;;23.06;23.80
34370;BME280;20635;55.812;37.560;2022-11-21T10:36:00;99699.34;;;23.01;23.86
34370;BME280;20635;55.812;37.560;2022-11-21T10:38:28;99693.75;;;23.01;23.84
34370;BME280;20635;55.812;37.560;2022-11-21T10:41:02;99690.97;;;23.01;23.77
34370;BME280;20635;55.812;37.560;2022-11-21T10:43:44;99689.81;;;23.02;23.79
34370;BME280;20635;55.812;37.560;2022-11-21T10:46:32;99689.31;;;23.00;23.81
34370;BME280;20635;55.812;37.560;2022-11-21T10:49:00;99688.50;;;22.99;23.44
34370;BME280;20635;55.812;37.560;2022-11-21T10:51:49;99676.97;;;23.01;23.86
34370;BME280;20635;55.812;37.560;2022-11-21T10:54:17;99678.75;;;22.97;23.87
34370;BME280;20635;55.812;37.560;2022-11-21T10:57:18;99678.13;;;23.00;23.56
34370;BME280;20635;55.812;37.560;2022-11-21T11:00:00;99678.97;;;23.00;23.59
34370;BME280;20635;55.812;37.560;2022-11-21T11:02:27;99680.72;;;22.96;23.84
34370;BME280;20635;55.812;37.560;2022-11-21T11:07:42;99681.88;;;22.95;23.67
34370;BME280;20635;55.812;37.560;2022-11-21T11:10:23;99669.06;;;22.94;23.63
34370;BME280;20635;55.812;37.560;2022-11-21T11:12:50;99669.06;;;22.94;23.48
34370;BME280;20635;55.812;37.560;2022-11-21T11:15:36;99665.44;;;22.94;23.76
34370;BME280;20635;55.812;37.560;2022-11-21T11:18:19;99660.66;;;22.94;23.52
34370;BME280;20635;55.812;37.560;2022-11-21T11:20:47;99653.41;;;22.93;23.75
34370;BME280;20635;55.812;37.560;2022-11-21T11:25:49;99653.94;;;22.95;23.78
34370;BME280;20635;55.812;37.560;2022-11-21T11:28:15;99652.09;;;22.91;23.94
34370;BME280;20635;55.812;37.560;2022-11-21T11:30:45;99647.31;;;22.91;23.61
34370;BME280;20635;55.812;37.560;2022-11-21T11:38:29;99649.63;;;22.89;23.74
34370;BME280;20635;55.812;37.560;2022-11-21T11:40:59;99646.50;;;22.91;23.83
34370;BME280;20635;55.812;37.560;2022-11-21T11:51:59;99652.41;;;22.89;23.50
34370;BME280;20635;55.812;37.560;2022-11-21T11:54:28;99646.69;;;22.94;23.93
34370;BME280;20635;55.812;37.560;2022-11-21T11:56:56;99650.72;;;22.88;23.82
34370;BME280;20635;55.812;37.560;2022-11-21T12:04:27;99649.38;;;22.86;23.72
34370;BME280;20635;55.812;37.560;2022-11-21T12:06:58;99642.44;;;22.83;23.76
34370;BME280;20635;55.812;37.560;2022-11-21T12:09:29;99633.25;;;22.83;23.51
34370;BME280;20635;55.812;37.560;2022-11-21T12:14:45;99627.16;;;22.81;23.39
34370;BME280;20635;55.812;37.560;2022-11-21T12:20:20;99630.25;;;22.79;23.42
34370;BME280;20635;55.812;37.560;2022-11-21T12:22:49;99642.91;;;22.76;23.57
34370;BME280;20635;55.812;37.560;2022-11-21T12:25:18;99635.63;;;22.75;23.47
34370;BME280;20635;55.812;37.560;2022-11-21T12:27:50;99639.59;;;22.74;23.54
34370;BME280;20635;55.812;37.560;2022-11-21T12:35:36;99639.91;;;22.73;23.42
34370;BME280;20635;55.812;37.560;2022-11-21T12:49:49;99635.78;;;22.70;23.71
34370;BME280;20635;55.812;37.560;2022-11-21T12:52:39;99657.28;;;22.70;23.58
34370;BME280;20635;55.812;37.560;2022-11-21T12:55:43;99652.53;;;22.70;23.69
34370;BME280;20635;55.812;37.560;2022-11-21T13:01:19;99656.16;;;22.71;23.48
34370;BME280;20635;55.812;37.560;2022-11-21T13:06:26;99651.50;;;22.66;23.59
34370;BME280;20635;55.812;37.560;2022-11-21T13:08:55;99633.94;;;22.66;23.41
34370;BME280;20635;55.812;37.560;2022-11-21T13:14:18;99644.59;;;22.64;23.68
34370;BME280;20635;55.812;37.560;2022-11-21T13:16:55;99644.59;;;22.64;23.54
34370;BME280;20635;55.812;37.560;2022-11-21T13:19:49;99641.81;;;22.64;23.46
34370;BME280;20635;55.812;37.560;2022-11-21T13:25:10;99629.63;;;22.60;23.59
34370;BME280;20635;55.812;37.560;2022-11-21T13:27:38;99629.63;;;22.60;23.54
34370;BME280;20635;55.812;37.560;2022-11-21T13:32:53;99624.03;;;22.60;23.67
34370;BME280;20635;55.812;37.560;2022-11-21T13:45:49;99625.09;;;22.50;23.39
34370;BME280;20635;55.812;37.560;2022-11-21T14:03:08;99617.47;;;22.42;23.27
34370;BME280;20635;55.812;37.560;2022-11-21T14:05:54;99612.50;;;22.39;23.66
34370;BME280;20635;55.812;37.560;2022-11-21T14:08:26;99614.59;;;22.33;23.94
34370;BME280;20635;55.812;37.560;2022-11-21T14:10:54;99617.69;;;22.32;23.88
34370;BME280;20635;55.812;37.560;2022-11-21T14:13:27;99621.63;;;22.31;23.77
34370;BME280;20635;55.812;37.560;2022-11-21T14:16:19;99603.75;;;22.32;23.79
34370;BME280;20635;55.812;37.560;2022-11-21T14:18:49;99600.75;;;22.28;23.80
34370;BME280;20635;55.812;37.560;2022-11-21T14:21:24;99610.47;;;22.31;24.06
34370;BME280;20635;55.812;37.560;2022-11-21T14:24:02;99614.38;;;22.29;23.95
34370;BME280;20635;55.812;37.560;2022-11-21T14:26:38;99616.34;;;22.29;23.76
34370;BME280;20635;55.812;37.560;2022-11-21T14:29:42;99623.06;;;22.28;23.93
34370;BME280;20635;55.812;37.560;2022-11-21T14:32:14;99618.09;;;22.25;23.79
34370;BME280;20635;55.812;37.560;2022-11-21T14:34:40;99620.41;;;22.23;23.78
34370;BME280;20635;55.812;37.560;2022-11-21T14:37:07;99611.19;;;22.22;23.99
34370;BME280;20635;55.812;37.560;2022-11-21T14:39:38;99622.03;;;22.24;23.96
34370;BME280;20635;55.812;37.560;2022-11-21T14:42:09;99614.81;;;22.23;24.00
34370;BME280;20635;55.812;37.560;2022-11-21T14:44:36;99619.97;;;22.29;24.13
34370;BME280;20635;55.812;37.560;2022-11-21T14:49:56;99618.31;;;22.28;24.21
34370;BME280;20635;55.812;37.560;2022-11-21T14:52:32;99613.06;;;22.27;24.28
34370;BME280;20635;55.812;37.560;2022-11-21T14:55:00;99615.84;;;22.27;24.39
34370;BME280;20635;55.812;37.560;2022-11-21T14:57:29;99615.03;;;22.26;24.56